createdAt,value
2023-03-04T00:00:32.831Z,99140.34
2023-03-04T00:10:54.205Z,99128.84
2023-03-04T00:21:15.664Z,99115.03
2023-03-04T00:31:37.081Z,99118.22
2023-03-04T00:41:58.576Z,99097.69
2023-03-04T00:52:20.041Z,99086.09
2023-03-04T01:02:41.708Z,99072.38
2023-03-04T01:13:02.826Z,99061.69
2023-03-04T01:23:24.458Z,99055.88
2023-03-04T01:33:45.950Z,99049.34
2023-03-04T01:44:09.337Z,99048.69
2023-03-04T01:54:30.654Z,99026.84
2023-03-04T02:04:52.017Z,99027.03
2023-03-04T02:15:13.882Z,99008.78
2023-03-04T02:25:48.576Z,99002.97
2023-03-04T02:36:10.648Z,99009.59
2023-03-04T02:46:31.978Z,98991.34
2023-03-04T02:57:01.355Z,98966.38
2023-03-04T03:07:23.100Z,98952.00
2023-03-04T03:17:45.512Z,98954.31
2023-03-04T03:28:08.704Z,98942.44
2023-03-04T03:38:32.231Z,98937.09
2023-03-04T03:48:53.501Z,98937.41
2023-03-04T03:59:14.579Z,98916.47
2023-03-04T04:09:36.088Z,98898.78
2023-03-04T04:19:57.560Z,98879.47
2023-03-04T04:30:19.223Z,98863.56
2023-03-04T04:40:40.891Z,98826.78
2023-03-04T04:51:01.723Z,98810.00
2023-03-04T05:01:23.677Z,98802.16
2023-03-04T05:11:45.254Z,98792.03
2023-03-04T05:22:06.748Z,98774.25
2023-03-04T05:32:28.701Z,98775.72
2023-03-04T05:42:49.999Z,98777.91
2023-03-04T05:53:11.230Z,98767.38
2023-03-04T06:03:32.900Z,98751.00
2023-03-04T06:13:54.355Z,98743.84
2023-03-04T06:24:15.811Z,98729.31
2023-03-04T06:34:37.415Z,98726.19
2023-03-04T06:44:58.806Z,98714.00
2023-03-04T06:55:20.618Z,98701.59
2023-03-04T07:05:43.365Z,98684.88
2023-03-04T07:16:11.759Z,98673.47
2023-03-04T07:26:33.102Z,98648.09
2023-03-04T07:36:54.521Z,98635.66
2023-03-04T07:47:15.499Z,98636.03
2023-03-04T07:57:40.033Z,98619.13
2023-03-04T08:08:01.189Z,98625.78
2023-03-04T08:18:22.605Z,98613.19
2023-03-04T08:28:45.820Z,98613.66
2023-03-04T08:39:07.555Z,98618.91
2023-03-04T08:49:28.951Z,98607.88
2023-03-04T08:59:50.241Z,98602.53
2023-03-04T09:10:12.216Z,98596.59
2023-03-04T09:20:34.022Z,98586.03
2023-03-04T09:30:55.232Z,98583.78
2023-03-04T09:41:27.366Z,98580.78
2023-03-04T09:52:18.052Z,98564.91
2023-03-04T10:02:45.110Z,98560.44
2023-03-04T10:13:16.733Z,98553.94
2023-03-04T10:23:39.916Z,98540.91
2023-03-04T10:34:01.522Z,98530.75
2023-03-04T10:44:23.790Z,98530.28
2023-03-04T10:54:52.775Z,98527.84
2023-03-04T11:05:25.397Z,98493.50
2023-03-04T11:16:01.955Z,98466.22
2023-03-04T11:26:40.462Z,98463.34
2023-03-04T11:37:31.753Z,98457.88
2023-03-04T11:49:02.042Z,98453.72
2023-03-04T11:59:31.931Z,98437.00
2023-03-04T12:10:21.548Z,98445.47
2023-03-04T12:21:07.264Z,98443.13
2023-03-04T12:32:11.131Z,98444.03
2023-03-04T12:43:17.215Z,98438.59
2023-03-04T12:54:31.832Z,98433.38
2023-03-04T13:05:22.651Z,98437.97
2023-03-04T13:15:43.808Z,98433.09
2023-03-04T13:26:33.109Z,98430.25
2023-03-04T13:36:56.519Z,98428.38
2023-03-04T13:47:23.028Z,98418.91
2023-03-04T13:57:50.385Z,98385.38
2023-03-04T14:08:21.417Z,98379.50
2023-03-04T14:18:42.677Z,98391.59
2023-03-04T14:29:27.879Z,98394.88
2023-03-04T14:39:52.850Z,98399.56
2023-03-04T14:50:18.239Z,98383.94
2023-03-04T15:00:43.160Z,98380.56
2023-03-04T15:11:07.861Z,98370.06
2023-03-04T15:21:40.878Z,98376.91
2023-03-04T15:32:02.601Z,98376.41
2023-03-04T15:42:24.846Z,98375.72
2023-03-04T15:52:46.709Z,98359.22
2023-03-04T16:03:17.159Z,98363.53
2023-03-04T16:13:38.367Z,98369.44
2023-03-04T16:23:59.954Z,98357.19
2023-03-04T16:34:21.304Z,98360.56
2023-03-04T16:44:43.200Z,98357.47
2023-03-04T16:55:05.231Z,98332.56
2023-03-04T17:05:31.267Z,98319.28
2023-03-04T17:15:52.780Z,98311.75
2023-03-04T17:26:15.526Z,98319.38
2023-03-04T17:36:36.945Z,98301.28
2023-03-04T17:46:58.225Z,98308.13
2023-03-04T17:57:19.764Z,98301.41
2023-03-04T18:07:41.300Z,98283.81
2023-03-04T18:18:02.512Z,98278.88
2023-03-04T18:28:23.989Z,98292.19
2023-03-04T18:38:45.640Z,98267.94
2023-03-04T18:49:09.065Z,98261.38
2023-03-04T18:59:48.897Z,98250.81
2023-03-04T19:10:12.234Z,98246.69
2023-03-04T19:20:33.516Z,98238.31
2023-03-04T19:30:58.832Z,98219.09
2023-03-04T19:41:20.320Z,98210.16
2023-03-04T19:51:41.955Z,98209.13
2023-03-04T20:02:03.546Z,98207.91
2023-03-04T20:12:25.335Z,98200.63
2023-03-04T20:22:46.978Z,98191.81
2023-03-04T20:33:08.249Z,98191.41
2023-03-04T20:43:31.152Z,98275.53
2023-03-04T20:53:54.986Z,98304.66
2023-03-04T21:04:17.160Z,98310.53
2023-03-04T21:14:29.755Z,98329.19
2023-03-04T21:24:51.283Z,98335.16
2023-03-04T21:35:14.247Z,98358.56
2023-03-04T21:45:36.057Z,98371.44
2023-03-04T21:55:58.108Z,98361.66
2023-03-04T22:06:22.670Z,98355.97
2023-03-04T22:16:59.286Z,98343.34
2023-03-04T22:27:21.602Z,98353.06
2023-03-04T22:37:43.931Z,98361.34
2023-03-04T22:48:05.611Z,98380.59
2023-03-04T22:58:26.836Z,98413.13
2023-03-04T23:08:50.079Z,98434.97
2023-03-04T23:19:16.106Z,98443.22
2023-03-04T23:29:37.725Z,98449.84
2023-03-04T23:39:58.836Z,98457.31
2023-03-04T23:50:20.212Z,98458.03
